sensor_id;sensor_type;location;lat;lon;timestamp;P1;durP1;ratioP1;P2;durP2;ratioP2
44137;SDS011;29800;55.942;37.314;2022-09-16T00:00:44;10.73;;;6.25;;
44137;SDS011;29800;55.942;37.314;2022-09-16T00:03:11;8.10;;;5.80;;
44137;SDS011;29800;55.942;37.314;2022-09-16T00:05:41;11.30;;;6.07;;
44137;SDS011;29800;55.942;37.314;2022-09-16T00:08:09;15.10;;;6.28;;
44137;SDS011;29800;55.942;37.314;2022-09-16T00:10:36;12.45;;;6.45;;
44137;SDS011;29800;55.942;37.314;2022-09-16T00:13:02;12.93;;;6.70;;
44137;SDS011;29800;55.942;37.314;2022-09-16T00:15:29;12.77;;;7.10;;
44137;SDS011;29800;55.942;37.314;2022-09-16T00:17:55;11.18;;;6.88;;
44137;SDS011;29800;55.942;37.314;2022-09-16T00:20:21;11.90;;;7.57;;
44137;SDS011;29800;55.942;37.314;2022-09-16T00:22:47;12.65;;;7.65;;
44137;SDS011;29800;55.942;37.314;2022-09-16T00:25:13;15.80;;;8.57;;
44137;SDS011;29800;55.942;37.314;2022-09-16T00:27:39;16.08;;;8.18;;
44137;SDS011;29800;55.942;37.314;2022-09-16T00:30:05;13.00;;;7.90;;
44137;SDS011;29800;55.942;37.314;2022-09-16T00:32:32;16.90;;;7.30;;
44137;SDS011;29800;55.942;37.314;2022-09-16T00:34:58;13.73;;;7.10;;
44137;SDS011;29800;55.942;37.314;2022-09-16T00:37:24;14.80;;;6.78;;
44137;SDS011;29800;55.942;37.314;2022-09-16T00:39:50;12.43;;;7.75;;
44137;SDS011;29800;55.942;37.314;2022-09-16T00:42:17;15.52;;;8.73;;
44137;SDS011;29800;55.942;37.314;2022-09-16T00:44:54;13.15;;;8.38;;
44137;SDS011;29800;55.942;37.314;2022-09-16T00:47:30;17.20;;;9.63;;
44137;SDS011;29800;55.942;37.314;2022-09-16T00:50:21;16.92;;;9.05;;
44137;SDS011;29800;55.942;37.314;2022-09-16T00:52:55;14.27;;;9.05;;
44137;SDS011;29800;55.942;37.314;2022-09-16T00:55:24;14.15;;;8.48;;
44137;SDS011;29800;55.942;37.314;2022-09-16T00:57:54;13.35;;;7.53;;
44137;SDS011;29800;55.942;37.314;2022-09-16T01:00:24;15.43;;;8.00;;
44137;SDS011;29800;55.942;37.314;2022-09-16T01:02:50;13.18;;;8.38;;
44137;SDS011;29800;55.942;37.314;2022-09-16T01:05:17;12.85;;;8.30;;
44137;SDS011;29800;55.942;37.314;2022-09-16T01:07:47;14.60;;;9.10;;
44137;SDS011;29800;55.942;37.314;2022-09-16T01:10:18;16.13;;;9.75;;
44137;SDS011;29800;55.942;37.314;2022-09-16T01:12:57;14.85;;;9.57;;
44137;SDS011;29800;55.942;37.314;2022-09-16T01:18:30;15.45;;;9.95;;
44137;SDS011;29800;55.942;37.314;2022-09-16T01:21:02;16.80;;;10.38;;
44137;SDS011;29800;55.942;37.314;2022-09-16T01:23:50;17.85;;;10.75;;
44137;SDS011;29800;55.942;37.314;2022-09-16T01:27:04;19.92;;;11.48;;
44137;SDS011;29800;55.942;37.314;2022-09-16T01:32:41;16.92;;;10.98;;
44137;SDS011;29800;55.942;37.314;2022-09-16T01:46:44;15.15;;;10.68;;
44137;SDS011;29800;55.942;37.314;2022-09-16T01:54:50;15.25;;;10.10;;
44137;SDS011;29800;55.942;37.314;2022-09-16T01:57:30;18.08;;;9.38;;
44137;SDS011;29800;55.942;37.314;2022-09-16T02:00:00;13.48;;;9.32;;
44137;SDS011;29800;55.942;37.314;2022-09-16T02:02:35;14.43;;;9.32;;
44137;SDS011;29800;55.942;37.314;2022-09-16T02:05:04;12.75;;;9.23;;
44137;SDS011;29800;55.942;37.314;2022-09-16T02:07:36;14.02;;;9.68;;
44137;SDS011;29800;55.942;37.314;2022-09-16T02:10:07;13.63;;;9.00;;
44137;SDS011;29800;55.942;37.314;2022-09-16T02:13:08;14.70;;;8.70;;
44137;SDS011;29800;55.942;37.314;2022-09-16T02:15:39;14.07;;;8.30;;
44137;SDS011;29800;55.942;37.314;2022-09-16T02:18:09;16.95;;;9.90;;
44137;SDS011;29800;55.942;37.314;2022-09-16T02:20:40;16.15;;;9.27;;
44137;SDS011;29800;55.942;37.314;2022-09-16T02:23:13;18.88;;;9.75;;
44137;SDS011;29800;55.942;37.314;2022-09-16T02:25:43;14.10;;;9.15;;
44137;SDS011;29800;55.942;37.314;2022-09-16T02:28:12;16.85;;;8.90;;
44137;SDS011;29800;55.942;37.314;2022-09-16T02:30:49;17.05;;;8.85;;
44137;SDS011;29800;55.942;37.314;2022-09-16T02:33:20;19.20;;;9.57;;
44137;SDS011;29800;55.942;37.314;2022-09-16T02:35:49;14.95;;;9.23;;
44137;SDS011;29800;55.942;37.314;2022-09-16T02:38:39;16.95;;;8.30;;
44137;SDS011;29800;55.942;37.314;2022-09-16T02:41:08;13.90;;;8.30;;
44137;SDS011;29800;55.942;37.314;2022-09-16T02:43:42;14.13;;;9.02;;
44137;SDS011;29800;55.942;37.314;2022-09-16T02:46:21;14.38;;;8.20;;
44137;SDS011;29800;55.942;37.314;2022-09-16T02:54:27;12.60;;;7.53;;
44137;SDS011;29800;55.942;37.314;2022-09-16T02:57:05;14.98;;;8.70;;
44137;SDS011;29800;55.942;37.314;2022-09-16T02:59:32;12.93;;;8.10;;
44137;SDS011;29800;55.942;37.314;2022-09-16T03:01:58;12.30;;;8.05;;
44137;SDS011;29800;55.942;37.314;2022-09-16T03:04:28;10.55;;;7.85;;
44137;SDS011;29800;55.942;37.314;2022-09-16T03:06:54;13.15;;;8.05;;
44137;SDS011;29800;55.942;37.314;2022-09-16T03:09:20;12.27;;;8.45;;
44137;SDS011;29800;55.942;37.314;2022-09-16T03:14:32;11.00;;;7.68;;
44137;SDS011;29800;55.942;37.314;2022-09-16T03:25:12;13.07;;;8.35;;
44137;SDS011;29800;55.942;37.314;2022-09-16T03:30:22;13.40;;;8.27;;
44137;SDS011;29800;55.942;37.314;2022-09-16T03:33:10;15.35;;;8.13;;
44137;SDS011;29800;55.942;37.314;2022-09-16T03:35:45;13.43;;;8.05;;
44137;SDS011;29800;55.942;37.314;2022-09-16T03:38:14;12.10;;;8.40;;
44137;SDS011;29800;55.942;37.314;2022-09-16T03:40:43;14.80;;;8.43;;
44137;SDS011;29800;55.942;37.314;2022-09-16T03:43:12;13.85;;;8.45;;
44137;SDS011;29800;55.942;37.314;2022-09-16T03:45:40;12.80;;;8.23;;
44137;SDS011;29800;55.942;37.314;2022-09-16T03:48:08;12.45;;;8.48;;
44137;SDS011;29800;55.942;37.314;2022-09-16T03:50:35;14.95;;;9.50;;
44137;SDS011;29800;55.942;37.314;2022-09-16T03:53:01;13.93;;;8.40;;
44137;SDS011;29800;55.942;37.314;2022-09-16T03:55:27;15.32;;;8.50;;
44137;SDS011;29800;55.942;37.314;2022-09-16T03:57:53;13.68;;;8.27;;
44137;SDS011;29800;55.942;37.314;2022-09-16T04:00:20;14.73;;;8.63;;
44137;SDS011;29800;55.942;37.314;2022-09-16T04:02:47;13.88;;;8.18;;
44137;SDS011;29800;55.942;37.314;2022-09-16T04:05:13;12.48;;;8.32;;
44137;SDS011;29800;55.942;37.314;2022-09-16T04:07:40;16.25;;;9.23;;
44137;SDS011;29800;55.942;37.314;2022-09-16T04:10:06;14.75;;;8.68;;
44137;SDS011;29800;55.942;37.314;2022-09-16T04:12:32;11.52;;;8.20;;
44137;SDS011;29800;55.942;37.314;2022-09-16T04:14:58;16.73;;;8.73;;
44137;SDS011;29800;55.942;37.314;2022-09-16T04:17:24;14.00;;;8.93;;
44137;SDS011;29800;55.942;37.314;2022-09-16T04:19:50;12.00;;;8.20;;
44137;SDS011;29800;55.942;37.314;2022-09-16T04:22:17;12.35;;;8.48;;
44137;SDS011;29800;55.942;37.314;2022-09-16T04:24:43;12.07;;;8.90;;
44137;SDS011;29800;55.942;37.314;2022-09-16T04:27:09;12.05;;;8.68;;
44137;SDS011;29800;55.942;37.314;2022-09-16T04:29:35;11.73;;;8.15;;
44137;SDS011;29800;55.942;37.314;2022-09-16T04:32:01;12.05;;;6.22;;
44137;SDS011;29800;55.942;37.314;2022-09-16T04:45:57;12.80;;;8.27;;
44137;SDS011;29800;55.942;37.314;2022-09-16T04:48:24;13.30;;;8.93;;
44137;SDS011;29800;55.942;37.314;2022-09-16T04:50:50;14.48;;;9.20;;
44137;SDS011;29800;55.942;37.314;2022-09-16T04:53:17;12.57;;;8.82;;
44137;SDS011;29800;55.942;37.314;2022-09-16T04:55:45;14.95;;;8.85;;
44137;SDS011;29800;55.942;37.314;2022-09-16T04:58:11;13.52;;;9.32;;
44137;SDS011;29800;55.942;37.314;2022-09-16T05:00:37;18.00;;;9.68;;
44137;SDS011;29800;55.942;37.314;2022-09-16T05:03:03;16.80;;;9.50;;
44137;SDS011;29800;55.942;37.314;2022-09-16T05:05:29;17.55;;;9.23;;
44137;SDS011;29800;55.942;37.314;2022-09-16T05:07:55;15.23;;;9.70;;
44137;SDS011;29800;55.942;37.314;2022-09-16T05:10:22;22.30;;;7.78;;
44137;SDS011;29800;55.942;37.314;2022-09-16T05:12:51;7.75;;;4.88;;
44137;SDS011;29800;55.942;37.314;2022-09-16T05:15:18;8.85;;;5.30;;
44137;SDS011;29800;55.942;37.314;2022-09-16T05:17:44;6.63;;;4.18;;
44137;SDS011;29800;55.942;37.314;2022-09-16T05:20:11;11.38;;;5.47;;
44137;SDS011;29800;55.942;37.314;2022-09-16T05:22:37;15.13;;;7.47;;
44137;SDS011;29800;55.942;37.314;2022-09-16T05:25:03;7.15;;;5.15;;
44137;SDS011;29800;55.942;37.314;2022-09-16T05:27:30;7.50;;;5.18;;
44137;SDS011;29800;55.942;37.314;2022-09-16T05:29:56;13.38;;;7.75;;
44137;SDS011;29800;55.942;37.314;2022-09-16T05:32:22;8.20;;;5.13;;
44137;SDS011;29800;55.942;37.314;2022-09-16T05:34:48;8.05;;;4.43;;
44137;SDS011;29800;55.942;37.314;2022-09-16T05:37:18;8.65;;;4.93;;
44137;SDS011;29800;55.942;37.314;2022-09-16T05:39:44;9.55;;;5.05;;
44137;SDS011;29800;55.942;37.314;2022-09-16T05:42:10;9.10;;;5.07;;
44137;SDS011;29800;55.942;37.314;2022-09-16T05:44:36;14.60;;;7.90;;
44137;SDS011;29800;55.942;37.314;2022-09-16T05:47:02;8.18;;;5.65;;
44137;SDS011;29800;55.942;37.314;2022-09-16T05:49:28;10.57;;;5.20;;
44137;SDS011;29800;55.942;37.314;2022-09-16T05:51:54;10.13;;;5.85;;
44137;SDS011;29800;55.942;37.314;2022-09-16T05:54:20;7.57;;;5.07;;
44137;SDS011;29800;55.942;37.314;2022-09-16T05:56:49;7.40;;;5.00;;
44137;SDS011;29800;55.942;37.314;2022-09-16T05:59:16;11.25;;;7.30;;
44137;SDS011;29800;55.942;37.314;2022-09-16T06:01:43;8.20;;;4.72;;
44137;SDS011;29800;55.942;37.314;2022-09-16T06:04:10;9.60;;;5.55;;
44137;SDS011;29800;55.942;37.314;2022-09-16T06:06:38;8.73;;;6.15;;
44137;SDS011;29800;55.942;37.314;2022-09-16T06:09:07;8.90;;;4.78;;
44137;SDS011;29800;55.942;37.314;2022-09-16T06:11:36;6.63;;;3.75;;
44137;SDS011;29800;55.942;37.314;2022-09-16T06:14:04;10.95;;;5.25;;
44137;SDS011;29800;55.942;37.314;2022-09-16T06:16:31;8.60;;;6.05;;
44137;SDS011;29800;55.942;37.314;2022-09-16T06:19:01;8.85;;;5.50;;
44137;SDS011;29800;55.942;37.314;2022-09-16T06:21:28;6.68;;;4.40;;
44137;SDS011;29800;55.942;37.314;2022-09-16T06:23:55;10.00;;;5.53;;
44137;SDS011;29800;55.942;37.314;2022-09-16T06:26:22;8.55;;;5.20;;
44137;SDS011;29800;55.942;37.314;2022-09-16T06:28:50;13.63;;;8.20;;
44137;SDS011;29800;55.942;37.314;2022-09-16T06:31:18;11.90;;;7.93;;
44137;SDS011;29800;55.942;37.314;2022-09-16T06:33:46;13.77;;;7.63;;
44137;SDS011;29800;55.942;37.314;2022-09-16T06:36:16;12.13;;;7.57;;
44137;SDS011;29800;55.942;37.314;2022-09-16T06:38:51;11.57;;;5.43;;
44137;SDS011;29800;55.942;37.314;2022-09-16T06:41:17;5.70;;;3.90;;
44137;SDS011;29800;55.942;37.314;2022-09-16T06:43:45;5.70;;;3.90;;
44137;SDS011;29800;55.942;37.314;2022-09-16T06:46:13;5.95;;;3.70;;
44137;SDS011;29800;55.942;37.314;2022-09-16T06:48:44;7.35;;;4.00;;
44137;SDS011;29800;55.942;37.314;2022-09-16T06:51:12;6.55;;;3.80;;
44137;SDS011;29800;55.942;37.314;2022-09-16T06:53:41;7.47;;;4.40;;
44137;SDS011;29800;55.942;37.314;2022-09-16T06:56:09;12.15;;;7.22;;
44137;SDS011;29800;55.942;37.314;2022-09-16T06:58:38;11.85;;;7.18;;
44137;SDS011;29800;55.942;37.314;2022-09-16T07:01:10;7.80;;;4.35;;
44137;SDS011;29800;55.942;37.314;2022-09-16T07:03:38;10.10;;;5.32;;
44137;SDS011;29800;55.942;37.314;2022-09-16T07:06:06;11.20;;;7.40;;
44137;SDS011;29800;55.942;37.314;2022-09-16T07:08:33;14.90;;;8.70;;
44137;SDS011;29800;55.942;37.314;2022-09-16T07:11:11;10.25;;;5.85;;
44137;SDS011;29800;55.942;37.314;2022-09-16T07:13:38;12.25;;;6.88;;
44137;SDS011;29800;55.942;37.314;2022-09-16T07:16:06;8.85;;;4.50;;
44137;SDS011;29800;55.942;37.314;2022-09-16T07:18:34;15.55;;;7.88;;
44137;SDS011;29800;55.942;37.314;2022-09-16T07:21:02;18.25;;;9.40;;
44137;SDS011;29800;55.942;37.314;2022-09-16T07:23:30;14.73;;;9.55;;
44137;SDS011;29800;55.942;37.314;2022-09-16T07:25:59;15.45;;;9.25;;
44137;SDS011;29800;55.942;37.314;2022-09-16T07:28:26;9.48;;;6.60;;
44137;SDS011;29800;55.942;37.314;2022-09-16T07:30:52;18.63;;;9.68;;
44137;SDS011;29800;55.942;37.314;2022-09-16T07:33:18;18.45;;;10.48;;
44137;SDS011;29800;55.942;37.314;2022-09-16T07:35:45;18.63;;;10.95;;
44137;SDS011;29800;55.942;37.314;2022-09-16T07:38:11;22.33;;;12.02;;
44137;SDS011;29800;55.942;37.314;2022-09-16T07:40:37;18.58;;;10.95;;
44137;SDS011;29800;55.942;37.314;2022-09-16T07:43:05;21.85;;;9.93;;
44137;SDS011;29800;55.942;37.314;2022-09-16T07:45:31;12.95;;;6.78;;
44137;SDS011;29800;55.942;37.314;2022-09-16T07:47:57;17.48;;;10.93;;
44137;SDS011;29800;55.942;37.314;2022-09-16T07:50:23;16.02;;;10.90;;
44137;SDS011;29800;55.942;37.314;2022-09-16T07:52:53;12.82;;;8.05;;
44137;SDS011;29800;55.942;37.314;2022-09-16T07:55:20;14.70;;;6.78;;
44137;SDS011;29800;55.942;37.314;2022-09-16T07:57:46;15.15;;;10.55;;
44137;SDS011;29800;55.942;37.314;2022-09-16T08:00:12;18.38;;;10.57;;
44137;SDS011;29800;55.942;37.314;2022-09-16T08:02:40;17.75;;;10.05;;
44137;SDS011;29800;55.942;37.314;2022-09-16T08:05:07;15.07;;;10.38;;
44137;SDS011;29800;55.942;37.314;2022-09-16T08:07:34;18.73;;;10.32;;
44137;SDS011;29800;55.942;37.314;2022-09-16T08:10:01;15.95;;;9.25;;
44137;SDS011;29800;55.942;37.314;2022-09-16T08:12:28;18.17;;;10.73;;
44137;SDS011;29800;55.942;37.314;2022-09-16T08:14:59;15.70;;;11.23;;
44137;SDS011;29800;55.942;37.314;2022-09-16T08:17:25;18.38;;;9.45;;
44137;SDS011;29800;55.942;37.314;2022-09-16T08:19:51;18.88;;;10.73;;
44137;SDS011;29800;55.942;37.314;2022-09-16T08:22:18;17.33;;;10.50;;
44137;SDS011;29800;55.942;37.314;2022-09-16T08:24:44;15.50;;;11.23;;
44137;SDS011;29800;55.942;37.314;2022-09-16T08:27:10;24.80;;;11.65;;
44137;SDS011;29800;55.942;37.314;2022-09-16T08:29:36;18.35;;;11.10;;
44137;SDS011;29800;55.942;37.314;2022-09-16T08:32:02;18.15;;;10.90;;
44137;SDS011;29800;55.942;37.314;2022-09-16T08:34:28;19.00;;;10.68;;
44137;SDS011;29800;55.942;37.314;2022-09-16T08:36:55;19.48;;;11.00;;
44137;SDS011;29800;55.942;37.314;2022-09-16T08:39:21;16.08;;;10.52;;
44137;SDS011;29800;55.942;37.314;2022-09-16T08:41:57;15.15;;;10.38;;
44137;SDS011;29800;55.942;37.314;2022-09-16T08:44:37;15.35;;;8.90;;
44137;SDS011;29800;55.942;37.314;2022-09-16T08:49:57;13.60;;;9.40;;
44137;SDS011;29800;55.942;37.314;2022-09-16T08:52:30;17.80;;;11.13;;
44137;SDS011;29800;55.942;37.314;2022-09-16T08:55:46;15.50;;;9.00;;
44137;SDS011;29800;55.942;37.314;2022-09-16T09:00:44;14.68;;;9.85;;
44137;SDS011;29800;55.942;37.314;2022-09-16T09:03:23;13.48;;;8.82;;
44137;SDS011;29800;55.942;37.314;2022-09-16T09:05:55;15.05;;;9.15;;
44137;SDS011;29800;55.942;37.314;2022-09-16T09:21:40;16.58;;;10.10;;
44137;SDS011;29800;55.942;37.314;2022-09-16T09:26:58;15.70;;;7.50;;
44137;SDS011;29800;55.942;37.314;2022-09-16T09:41:24;14.00;;;6.90;;
44137;SDS011;29800;55.942;37.314;2022-09-16T09:47:28;9.30;;;6.93;;
44137;SDS011;29800;55.942;37.314;2022-09-16T09:50:02;15.70;;;8.15;;
44137;SDS011;29800;55.942;37.314;2022-09-16T09:55:17;9.75;;;6.22;;
44137;SDS011;29800;55.942;37.314;2022-09-16T09:57:58;10.20;;;7.15;;
44137;SDS011;29800;55.942;37.314;2022-09-16T10:00:26;10.90;;;8.05;;
44137;SDS011;29800;55.942;37.314;2022-09-16T10:03:00;10.27;;;6.70;;
44137;SDS011;29800;55.942;37.314;2022-09-16T10:05:29;9.38;;;6.85;;
44137;SDS011;29800;55.942;37.314;2022-09-16T10:08:03;11.15;;;7.22;;
44137;SDS011;29800;55.942;37.314;2022-09-16T10:10:38;11.45;;;6.55;;
44137;SDS011;29800;55.942;37.314;2022-09-16T10:13:25;9.77;;;5.95;;
44137;SDS011;29800;55.942;37.314;2022-09-16T10:16:08;13.15;;;7.10;;
44137;SDS011;29800;55.942;37.314;2022-09-16T10:18:39;9.88;;;6.35;;
44137;SDS011;29800;55.942;37.314;2022-09-16T10:21:12;11.13;;;6.57;;
44137;SDS011;29800;55.942;37.314;2022-09-16T10:23:51;9.68;;;7.13;;
44137;SDS011;29800;55.942;37.314;2022-09-16T10:26:23;10.10;;;7.00;;
44137;SDS011;29800;55.942;37.314;2022-09-16T10:28:57;12.60;;;7.10;;
44137;SDS011;29800;55.942;37.314;2022-09-16T10:31:34;10.68;;;6.78;;
44137;SDS011;29800;55.942;37.314;2022-09-16T10:34:03;11.95;;;7.10;;
44137;SDS011;29800;55.942;37.314;2022-09-16T10:36:37;16.63;;;8.80;;
44137;SDS011;29800;55.942;37.314;2022-09-16T10:39:03;18.00;;;12.60;;
44137;SDS011;29800;55.942;37.314;2022-09-16T10:41:42;18.80;;;14.60;;
44137;SDS011;29800;55.942;37.314;2022-09-16T10:44:13;14.98;;;9.73;;
44137;SDS011;29800;55.942;37.314;2022-09-16T10:50:14;10.10;;;6.95;;
44137;SDS011;29800;55.942;37.314;2022-09-16T10:52:43;9.73;;;6.80;;
44137;SDS011;29800;55.942;37.314;2022-09-16T10:55:19;10.20;;;7.35;;
44137;SDS011;29800;55.942;37.314;2022-09-16T10:57:48;10.00;;;6.97;;
44137;SDS011;29800;55.942;37.314;2022-09-16T11:00:15;11.10;;;7.13;;
44137;SDS011;29800;55.942;37.314;2022-09-16T11:05:47;11.23;;;7.47;;
44137;SDS011;29800;55.942;37.314;2022-09-16T11:13:59;13.45;;;9.00;;
44137;SDS011;29800;55.942;37.314;2022-09-16T11:26:21;14.75;;;7.78;;
44137;SDS011;29800;55.942;37.314;2022-09-16T11:46:24;16.38;;;9.93;;
44137;SDS011;29800;55.942;37.314;2022-09-16T11:48:40;15.18;;;9.32;;
44137;SDS011;29800;55.942;37.314;2022-09-16T11:56:55;16.25;;;10.73;;
44137;SDS011;29800;55.942;37.314;2022-09-16T11:59:35;14.45;;;10.10;;
44137;SDS011;29800;55.942;37.314;2022-09-16T12:02:20;17.80;;;10.43;;
44137;SDS011;29800;55.942;37.314;2022-09-16T12:05:02;15.98;;;10.23;;
44137;SDS011;29800;55.942;37.314;2022-09-16T12:07:44;14.18;;;10.30;;
44137;SDS011;29800;55.942;37.314;2022-09-16T12:10:22;16.38;;;9.90;;
44137;SDS011;29800;55.942;37.314;2022-09-16T12:13:06;15.48;;;10.15;;
44137;SDS011;29800;55.942;37.314;2022-09-16T12:15:44;13.98;;;10.65;;
44137;SDS011;29800;55.942;37.314;2022-09-16T12:20:50;13.52;;;9.80;;
44137;SDS011;29800;55.942;37.314;2022-09-16T12:23:43;13.82;;;9.55;;
44137;SDS011;29800;55.942;37.314;2022-09-16T12:26:46;15.65;;;10.32;;
44137;SDS011;29800;55.942;37.314;2022-09-16T12:29:14;16.80;;;10.87;;
44137;SDS011;29800;55.942;37.314;2022-09-16T12:31:54;19.30;;;10.60;;
44137;SDS011;29800;55.942;37.314;2022-09-16T12:35:00;16.77;;;10.35;;
44137;SDS011;29800;55.942;37.314;2022-09-16T12:40:21;19.45;;;9.48;;
44137;SDS011;29800;55.942;37.314;2022-09-16T12:45:34;15.13;;;9.95;;
44137;SDS011;29800;55.942;37.314;2022-09-16T12:48:19;16.60;;;10.73;;
44137;SDS011;29800;55.942;37.314;2022-09-16T12:56:42;17.20;;;9.80;;
44137;SDS011;29800;55.942;37.314;2022-09-16T12:59:34;17.23;;;9.55;;
44137;SDS011;29800;55.942;37.314;2022-09-16T13:02:20;13.18;;;9.38;;
44137;SDS011;29800;55.942;37.314;2022-09-16T13:04:53;14.48;;;9.45;;
44137;SDS011;29800;55.942;37.314;2022-09-16T13:07:23;13.48;;;8.63;;
44137;SDS011;29800;55.942;37.314;2022-09-16T13:09:59;12.18;;;8.93;;
44137;SDS011;29800;55.942;37.314;2022-09-16T13:12:33;15.82;;;9.82;;
44137;SDS011;29800;55.942;37.314;2022-09-16T13:15:01;14.75;;;10.10;;
44137;SDS011;29800;55.942;37.314;2022-09-16T13:17:32;14.70;;;10.60;;
44137;SDS011;29800;55.942;37.314;2022-09-16T13:22:58;14.93;;;9.93;;
44137;SDS011;29800;55.942;37.314;2022-09-16T13:28:23;15.15;;;10.00;;
44137;SDS011;29800;55.942;37.314;2022-09-16T13:33:42;17.45;;;10.60;;
44137;SDS011;29800;55.942;37.314;2022-09-16T13:36:16;14.10;;;10.02;;
44137;SDS011;29800;55.942;37.314;2022-09-16T13:38:56;18.38;;;10.77;;
44137;SDS011;29800;55.942;37.314;2022-09-16T13:41:28;14.40;;;9.52;;
44137;SDS011;29800;55.942;37.314;2022-09-16T13:43:57;12.88;;;10.25;;
44137;SDS011;29800;55.942;37.314;2022-09-16T13:51:37;14.77;;;10.65;;
44137;SDS011;29800;55.942;37.314;2022-09-16T13:54:13;18.42;;;11.30;;
44137;SDS011;29800;55.942;37.314;2022-09-16T14:05:12;19.00;;;11.85;;
44137;SDS011;29800;55.942;37.314;2022-09-16T14:07:56;19.02;;;11.70;;
44137;SDS011;29800;55.942;37.314;2022-09-16T14:10:35;20.55;;;12.27;;
44137;SDS011;29800;55.942;37.314;2022-09-16T14:13:45;17.30;;;11.55;;
44137;SDS011;29800;55.942;37.314;2022-09-16T14:16:19;17.23;;;10.95;;
44137;SDS011;29800;55.942;37.314;2022-09-16T14:18:55;16.13;;;10.40;;
44137;SDS011;29800;55.942;37.314;2022-09-16T14:21:36;17.48;;;10.95;;
44137;SDS011;29800;55.942;37.314;2022-09-16T14:24:16;16.48;;;10.27;;
44137;SDS011;29800;55.942;37.314;2022-09-16T14:26:54;17.13;;;10.18;;
44137;SDS011;29800;55.942;37.314;2022-09-16T14:29:22;17.13;;;9.93;;
44137;SDS011;29800;55.942;37.314;2022-09-16T14:31:52;14.80;;;9.02;;
44137;SDS011;29800;55.942;37.314;2022-09-16T14:34:33;12.32;;;8.57;;
44137;SDS011;29800;55.942;37.314;2022-09-16T14:37:02;14.73;;;9.27;;
44137;SDS011;29800;55.942;37.314;2022-09-16T14:39:30;11.95;;;7.20;;
44137;SDS011;29800;55.942;37.314;2022-09-16T14:42:04;14.38;;;7.55;;
44137;SDS011;29800;55.942;37.314;2022-09-16T14:44:33;11.20;;;7.97;;
44137;SDS011;29800;55.942;37.314;2022-09-16T14:49:28;10.30;;;7.53;;
44137;SDS011;29800;55.942;37.314;2022-09-16T14:51:59;11.73;;;8.38;;
44137;SDS011;29800;55.942;37.314;2022-09-16T14:54:29;14.65;;;8.77;;
44137;SDS011;29800;55.942;37.314;2022-09-16T14:57:04;10.40;;;8.10;;
44137;SDS011;29800;55.942;37.314;2022-09-16T14:59:36;12.70;;;8.40;;
44137;SDS011;29800;55.942;37.314;2022-09-16T15:04:58;10.10;;;6.75;;
44137;SDS011;29800;55.942;37.314;2022-09-16T15:07:36;12.63;;;6.70;;
44137;SDS011;29800;55.942;37.314;2022-09-16T15:10:05;10.13;;;7.15;;
44137;SDS011;29800;55.942;37.314;2022-09-16T15:12:50;13.40;;;7.13;;
44137;SDS011;29800;55.942;37.314;2022-09-16T15:15:20;10.52;;;6.93;;
44137;SDS011;29800;55.942;37.314;2022-09-16T15:17:58;9.02;;;6.30;;
44137;SDS011;29800;55.942;37.314;2022-09-16T15:20:28;8.25;;;6.20;;
44137;SDS011;29800;55.942;37.314;2022-09-16T15:22:58;8.43;;;5.82;;
44137;SDS011;29800;55.942;37.314;2022-09-16T15:25:28;9.73;;;6.15;;
44137;SDS011;29800;55.942;37.314;2022-09-16T15:28:03;11.52;;;7.03;;
44137;SDS011;29800;55.942;37.314;2022-09-16T15:30:47;10.48;;;6.72;;
44137;SDS011;29800;55.942;37.314;2022-09-16T15:33:24;9.88;;;6.78;;
44137;SDS011;29800;55.942;37.314;2022-09-16T15:35:58;13.50;;;7.78;;
44137;SDS011;29800;55.942;37.314;2022-09-16T15:38:26;12.23;;;7.30;;
44137;SDS011;29800;55.942;37.314;2022-09-16T15:41:03;10.85;;;7.57;;
44137;SDS011;29800;55.942;37.314;2022-09-16T15:43:34;13.07;;;7.35;;
44137;SDS011;29800;55.942;37.314;2022-09-16T15:46:05;11.45;;;7.40;;
44137;SDS011;29800;55.942;37.314;2022-09-16T15:49:06;10.77;;;7.70;;
44137;SDS011;29800;55.942;37.314;2022-09-16T15:51:37;9.82;;;7.40;;
44137;SDS011;29800;55.942;37.314;2022-09-16T15:54:34;11.02;;;7.82;;
44137;SDS011;29800;55.942;37.314;2022-09-16T15:59:55;10.52;;;8.43;;
44137;SDS011;29800;55.942;37.314;2022-09-16T16:02:51;11.95;;;9.15;;
44137;SDS011;29800;55.942;37.314;2022-09-16T16:05:27;13.18;;;9.00;;
44137;SDS011;29800;55.942;37.314;2022-09-16T16:07:56;12.43;;;9.63;;
44137;SDS011;29800;55.942;37.314;2022-09-16T16:10:29;15.30;;;9.88;;
44137;SDS011;29800;55.942;37.314;2022-09-16T16:12:57;13.65;;;10.25;;
44137;SDS011;29800;55.942;37.314;2022-09-16T16:15:28;13.02;;;10.02;;
44137;SDS011;29800;55.942;37.314;2022-09-16T16:17:59;10.93;;;8.68;;
44137;SDS011;29800;55.942;37.314;2022-09-16T16:20:29;10.63;;;8.02;;
44137;SDS011;29800;55.942;37.314;2022-09-16T16:22:58;12.48;;;9.40;;
44137;SDS011;29800;55.942;37.314;2022-09-16T16:25:25;14.95;;;10.13;;
44137;SDS011;29800;55.942;37.314;2022-09-16T16:27:51;14.07;;;9.90;;
44137;SDS011;29800;55.942;37.314;2022-09-16T16:30:17;16.25;;;10.73;;
44137;SDS011;29800;55.942;37.314;2022-09-16T16:32:44;12.85;;;9.93;;
44137;SDS011;29800;55.942;37.314;2022-09-16T16:35:11;14.55;;;10.93;;
44137;SDS011;29800;55.942;37.314;2022-09-16T16:37:37;13.48;;;10.80;;
44137;SDS011;29800;55.942;37.314;2022-09-16T16:40:04;16.27;;;11.23;;
44137;SDS011;29800;55.942;37.314;2022-09-16T16:42:31;17.15;;;11.27;;
44137;SDS011;29800;55.942;37.314;2022-09-16T16:44:58;15.57;;;11.13;;
44137;SDS011;29800;55.942;37.314;2022-09-16T16:47:24;18.23;;;12.05;;
44137;SDS011;29800;55.942;37.314;2022-09-16T16:49:50;16.52;;;11.10;;
44137;SDS011;29800;55.942;37.314;2022-09-16T16:52:16;20.55;;;13.18;;
44137;SDS011;29800;55.942;37.314;2022-09-16T16:54:42;17.08;;;12.23;;
44137;SDS011;29800;55.942;37.314;2022-09-16T16:57:09;15.82;;;11.15;;
44137;SDS011;29800;55.942;37.314;2022-09-16T16:59:36;14.90;;;11.55;;
44137;SDS011;29800;55.942;37.314;2022-09-16T17:02:02;14.80;;;11.10;;
44137;SDS011;29800;55.942;37.314;2022-09-16T17:04:28;11.68;;;8.95;;
44137;SDS011;29800;55.942;37.314;2022-09-16T17:06:54;11.90;;;9.10;;
44137;SDS011;29800;55.942;37.314;2022-09-16T17:09:22;12.63;;;9.52;;
44137;SDS011;29800;55.942;37.314;2022-09-16T17:11:55;12.93;;;9.68;;
44137;SDS011;29800;55.942;37.314;2022-09-16T17:14:25;11.73;;;9.52;;
44137;SDS011;29800;55.942;37.314;2022-09-16T17:16:52;12.40;;;9.23;;
44137;SDS011;29800;55.942;37.314;2022-09-16T17:19:19;14.52;;;10.90;;
44137;SDS011;29800;55.942;37.314;2022-09-16T17:21:50;12.13;;;9.70;;
44137;SDS011;29800;55.942;37.314;2022-09-16T17:24:20;13.57;;;11.20;;
44137;SDS011;29800;55.942;37.314;2022-09-16T17:26:46;15.30;;;10.50;;
44137;SDS011;29800;55.942;37.314;2022-09-16T17:29:13;13.40;;;10.20;;
44137;SDS011;29800;55.942;37.314;2022-09-16T17:31:40;11.88;;;9.07;;
44137;SDS011;29800;55.942;37.314;2022-09-16T17:34:09;10.85;;;9.13;;
44137;SDS011;29800;55.942;37.314;2022-09-16T17:36:41;12.88;;;9.07;;
44137;SDS011;29800;55.942;37.314;2022-09-16T17:39:10;12.35;;;9.93;;
44137;SDS011;29800;55.942;37.314;2022-09-16T17:41:40;12.60;;;9.68;;
44137;SDS011;29800;55.942;37.314;2022-09-16T17:44:08;12.75;;;10.00;;
44137;SDS011;29800;55.942;37.314;2022-09-16T17:46:36;13.55;;;10.43;;